sensor_id;sensor_type;location;lat;lon;timestamp;P1;durP1;ratioP1;P2;durP2;ratioP2
735;SDS011;352;48.626;9.238;2023-01-16T00:00:25;3.33;;;1.85;;
735;SDS011;352;48.626;9.238;2023-01-16T00:02:51;3.28;;;1.98;;
735;SDS011;352;48.626;9.238;2023-01-16T00:05:19;2.08;;;1.98;;
735;SDS011;352;48.626;9.238;2023-01-16T00:07:46;3.78;;;1.75;;
735;SDS011;352;48.626;9.238;2023-01-16T00:10:13;3.72;;;1.50;;
735;SDS011;352;48.626;9.238;2023-01-16T00:12:41;1.30;;;1.20;;
735;SDS011;352;48.626;9.238;2023-01-16T00:15:08;1.80;;;1.70;;
735;SDS011;352;48.626;9.238;2023-01-16T00:17:35;1.60;;;1.50;;
735;SDS011;352;48.626;9.238;2023-01-16T00:20:02;1.95;;;1.50;;
735;SDS011;352;48.626;9.238;2023-01-16T00:22:30;2.40;;;1.65;;
735;SDS011;352;48.626;9.238;2023-01-16T00:24:57;1.63;;;1.52;;
735;SDS011;352;48.626;9.238;2023-01-16T00:27:24;2.50;;;1.50;;
735;SDS011;352;48.626;9.238;2023-01-16T00:29:50;1.40;;;1.30;;
735;SDS011;352;48.626;9.238;2023-01-16T00:32:17;3.67;;;1.90;;
735;SDS011;352;48.626;9.238;2023-01-16T00:34:44;2.00;;;1.30;;
735;SDS011;352;48.626;9.238;2023-01-16T00:37:10;2.25;;;1.50;;
735;SDS011;352;48.626;9.238;2023-01-16T00:39:38;2.53;;;1.70;;
735;SDS011;352;48.626;9.238;2023-01-16T00:42:05;2.83;;;1.77;;
735;SDS011;352;48.626;9.238;2023-01-16T00:44:32;1.40;;;1.30;;
735;SDS011;352;48.626;9.238;2023-01-16T00:46:59;1.60;;;1.40;;
735;SDS011;352;48.626;9.238;2023-01-16T00:49:26;3.45;;;1.80;;
735;SDS011;352;48.626;9.238;2023-01-16T00:51:52;3.92;;;1.60;;
735;SDS011;352;48.626;9.238;2023-01-16T00:54:19;1.67;;;1.58;;
735;SDS011;352;48.626;9.238;2023-01-16T00:56:47;4.43;;;1.65;;
735;SDS011;352;48.626;9.238;2023-01-16T00:59:14;2.15;;;1.20;;
735;SDS011;352;48.626;9.238;2023-01-16T01:01:41;3.80;;;1.70;;
735;SDS011;352;48.626;9.238;2023-01-16T01:04:07;2.17;;;1.40;;
735;SDS011;352;48.626;9.238;2023-01-16T01:06:34;1.85;;;1.25;;
735;SDS011;352;48.626;9.238;2023-01-16T01:09:01;2.10;;;1.30;;
735;SDS011;352;48.626;9.238;2023-01-16T01:11:28;4.45;;;2.30;;
735;SDS011;352;48.626;9.238;2023-01-16T01:13:56;1.30;;;1.20;;
735;SDS011;352;48.626;9.238;2023-01-16T01:16:23;2.67;;;1.50;;
735;SDS011;352;48.626;9.238;2023-01-16T01:18:50;2.65;;;1.50;;
735;SDS011;352;48.626;9.238;2023-01-16T01:21:16;1.85;;;1.20;;
735;SDS011;352;48.626;9.238;2023-01-16T01:23:43;4.88;;;1.30;;
735;SDS011;352;48.626;9.238;2023-01-16T01:26:11;1.55;;;1.45;;
735;SDS011;352;48.626;9.238;2023-01-16T01:28:39;2.58;;;1.38;;
735;SDS011;352;48.626;9.238;2023-01-16T01:31:08;1.58;;;1.42;;
735;SDS011;352;48.626;9.238;2023-01-16T01:33:36;3.03;;;1.30;;
735;SDS011;352;48.626;9.238;2023-01-16T01:36:04;2.28;;;1.35;;
735;SDS011;352;48.626;9.238;2023-01-16T01:38:32;1.42;;;1.30;;
735;SDS011;352;48.626;9.238;2023-01-16T01:40:58;1.65;;;1.30;;
735;SDS011;352;48.626;9.238;2023-01-16T01:43:38;1.88;;;1.65;;
735;SDS011;352;48.626;9.238;2023-01-16T01:46:06;1.63;;;1.40;;
735;SDS011;352;48.626;9.238;2023-01-16T01:48:40;2.35;;;1.30;;
735;SDS011;352;48.626;9.238;2023-01-16T01:51:08;1.63;;;1.23;;
735;SDS011;352;48.626;9.238;2023-01-16T01:53:40;1.63;;;1.50;;
735;SDS011;352;48.626;9.238;2023-01-16T01:56:11;2.67;;;1.50;;
735;SDS011;352;48.626;9.238;2023-01-16T01:58:42;2.08;;;1.67;;
735;SDS011;352;48.626;9.238;2023-01-16T02:01:13;1.83;;;1.40;;
735;SDS011;352;48.626;9.238;2023-01-16T02:03:41;3.75;;;1.40;;
735;SDS011;352;48.626;9.238;2023-01-16T02:06:13;2.05;;;1.10;;
735;SDS011;352;48.626;9.238;2023-01-16T02:08:43;4.93;;;1.58;;
735;SDS011;352;48.626;9.238;2023-01-16T02:11:11;2.65;;;1.20;;
735;SDS011;352;48.626;9.238;2023-01-16T02:13:50;1.92;;;1.50;;
735;SDS011;352;48.626;9.238;2023-01-16T02:16:19;1.95;;;1.52;;
735;SDS011;352;48.626;9.238;2023-01-16T02:19:04;1.95;;;1.40;;
735;SDS011;352;48.626;9.238;2023-01-16T02:24:51;2.20;;;1.88;;
735;SDS011;352;48.626;9.238;2023-01-16T02:27:43;1.70;;;1.60;;
735;SDS011;352;48.626;9.238;2023-01-16T02:30:35;3.08;;;1.50;;
735;SDS011;352;48.626;9.238;2023-01-16T02:33:25;1.42;;;1.33;;
735;SDS011;352;48.626;9.238;2023-01-16T02:36:00;2.63;;;1.30;;
735;SDS011;352;48.626;9.238;2023-01-16T02:38:35;2.78;;;1.30;;
735;SDS011;352;48.626;9.238;2023-01-16T02:41:12;2.97;;;1.40;;
735;SDS011;352;48.626;9.238;2023-01-16T02:43:46;1.30;;;1.00;;
735;SDS011;352;48.626;9.238;2023-01-16T02:46:23;1.30;;;1.20;;
735;SDS011;352;48.626;9.238;2023-01-16T02:48:56;2.28;;;1.17;;
735;SDS011;352;48.626;9.238;2023-01-16T02:51:30;1.40;;;1.30;;
735;SDS011;352;48.626;9.238;2023-01-16T02:54:03;1.30;;;1.20;;
735;SDS011;352;48.626;9.238;2023-01-16T02:56:36;4.80;;;1.55;;
735;SDS011;352;48.626;9.238;2023-01-16T02:59:07;2.20;;;1.10;;
735;SDS011;352;48.626;9.238;2023-01-16T03:01:36;4.07;;;1.42;;
735;SDS011;352;48.626;9.238;2023-01-16T03:07:23;1.55;;;1.20;;
735;SDS011;352;48.626;9.238;2023-01-16T03:10:26;4.20;;;1.42;;
735;SDS011;352;48.626;9.238;2023-01-16T03:13:12;3.83;;;1.27;;
735;SDS011;352;48.626;9.238;2023-01-16T03:15:51;1.48;;;1.10;;
735;SDS011;352;48.626;9.238;2023-01-16T03:18:26;3.28;;;1.35;;
735;SDS011;352;48.626;9.238;2023-01-16T03:21:00;2.72;;;1.60;;
735;SDS011;352;48.626;9.238;2023-01-16T03:23:37;2.65;;;1.65;;
735;SDS011;352;48.626;9.238;2023-01-16T03:26:14;1.70;;;1.25;;
735;SDS011;352;48.626;9.238;2023-01-16T03:28:46;2.65;;;1.40;;
735;SDS011;352;48.626;9.238;2023-01-16T03:31:25;1.88;;;1.40;;
735;SDS011;352;48.626;9.238;2023-01-16T03:33:59;1.45;;;1.30;;
735;SDS011;352;48.626;9.238;2023-01-16T03:36:38;3.88;;;1.42;;
735;SDS011;352;48.626;9.238;2023-01-16T03:39:12;3.28;;;1.35;;
735;SDS011;352;48.626;9.238;2023-01-16T03:41:42;1.45;;;1.20;;
735;SDS011;352;48.626;9.238;2023-01-16T03:44:13;1.30;;;1.20;;
735;SDS011;352;48.626;9.238;2023-01-16T03:46:47;1.98;;;1.20;;
735;SDS011;352;48.626;9.238;2023-01-16T03:49:15;2.25;;;1.60;;
735;SDS011;352;48.626;9.238;2023-01-16T03:51:48;1.63;;;1.13;;
735;SDS011;352;48.626;9.238;2023-01-16T03:54:22;2.22;;;2.00;;
735;SDS011;352;48.626;9.238;2023-01-16T03:56:58;1.35;;;1.20;;
735;SDS011;352;48.626;9.238;2023-01-16T03:59:32;3.65;;;3.35;;
735;SDS011;352;48.626;9.238;2023-01-16T04:02:00;3.47;;;1.50;;
735;SDS011;352;48.626;9.238;2023-01-16T04:04:34;2.60;;;1.67;;
735;SDS011;352;48.626;9.238;2023-01-16T04:07:08;2.28;;;1.65;;
735;SDS011;352;48.626;9.238;2023-01-16T04:09:40;1.80;;;1.38;;
735;SDS011;352;48.626;9.238;2023-01-16T04:12:11;1.60;;;1.40;;
735;SDS011;352;48.626;9.238;2023-01-16T04:14:45;2.10;;;1.30;;
735;SDS011;352;48.626;9.238;2023-01-16T04:17:15;2.13;;;1.52;;
735;SDS011;352;48.626;9.238;2023-01-16T04:19:42;4.82;;;1.58;;
735;SDS011;352;48.626;9.238;2023-01-16T04:22:17;1.92;;;1.48;;
735;SDS011;352;48.626;9.238;2023-01-16T04:24:46;2.67;;;1.35;;
735;SDS011;352;48.626;9.238;2023-01-16T04:27:14;2.13;;;1.50;;
735;SDS011;352;48.626;9.238;2023-01-16T04:29:41;3.97;;;1.83;;
735;SDS011;352;48.626;9.238;2023-01-16T04:32:08;2.95;;;1.40;;
735;SDS011;352;48.626;9.238;2023-01-16T04:34:34;2.47;;;1.23;;
735;SDS011;352;48.626;9.238;2023-01-16T04:37:01;2.15;;;1.25;;
735;SDS011;352;48.626;9.238;2023-01-16T04:39:28;1.67;;;1.30;;
735;SDS011;352;48.626;9.238;2023-01-16T04:41:56;1.95;;;1.30;;
735;SDS011;352;48.626;9.238;2023-01-16T04:44:23;2.10;;;1.80;;
735;SDS011;352;48.626;9.238;2023-01-16T04:46:50;5.15;;;1.70;;
735;SDS011;352;48.626;9.238;2023-01-16T04:49:18;2.92;;;1.48;;
735;SDS011;352;48.626;9.238;2023-01-16T04:51:45;1.83;;;1.73;;
735;SDS011;352;48.626;9.238;2023-01-16T04:54:13;1.27;;;1.15;;
735;SDS011;352;48.626;9.238;2023-01-16T04:56:40;3.83;;;1.33;;
735;SDS011;352;48.626;9.238;2023-01-16T04:59:09;2.90;;;1.20;;
735;SDS011;352;48.626;9.238;2023-01-16T05:01:37;2.28;;;1.50;;
735;SDS011;352;48.626;9.238;2023-01-16T05:04:05;1.55;;;1.45;;
735;SDS011;352;48.626;9.238;2023-01-16T05:06:33;2.70;;;1.70;;
735;SDS011;352;48.626;9.238;2023-01-16T05:09:01;1.85;;;1.52;;
735;SDS011;352;48.626;9.238;2023-01-16T05:11:29;3.22;;;1.75;;
735;SDS011;352;48.626;9.238;2023-01-16T05:13:56;4.43;;;1.67;;
735;SDS011;352;48.626;9.238;2023-01-16T05:16:25;2.50;;;2.30;;
735;SDS011;352;48.626;9.238;2023-01-16T05:18:52;2.75;;;1.88;;
735;SDS011;352;48.626;9.238;2023-01-16T05:21:19;4.65;;;2.20;;
735;SDS011;352;48.626;9.238;2023-01-16T05:23:45;2.25;;;1.85;;
735;SDS011;352;48.626;9.238;2023-01-16T05:26:12;2.13;;;2.03;;
735;SDS011;352;48.626;9.238;2023-01-16T05:28:39;2.63;;;2.42;;
735;SDS011;352;48.626;9.238;2023-01-16T05:31:06;2.00;;;1.90;;
735;SDS011;352;48.626;9.238;2023-01-16T05:33:34;2.35;;;1.70;;
735;SDS011;352;48.626;9.238;2023-01-16T05:36:00;1.80;;;1.70;;
735;SDS011;352;48.626;9.238;2023-01-16T05:38:27;2.35;;;2.15;;
735;SDS011;352;48.626;9.238;2023-01-16T05:40:54;2.00;;;1.90;;
735;SDS011;352;48.626;9.238;2023-01-16T05:43:21;2.92;;;1.90;;
735;SDS011;352;48.626;9.238;2023-01-16T05:45:47;2.10;;;2.00;;
735;SDS011;352;48.626;9.238;2023-01-16T05:48:14;2.10;;;2.00;;
735;SDS011;352;48.626;9.238;2023-01-16T05:50:42;2.22;;;2.13;;
735;SDS011;352;48.626;9.238;2023-01-16T05:53:09;7.55;;;5.00;;
735;SDS011;352;48.626;9.238;2023-01-16T05:55:38;7.03;;;5.55;;
735;SDS011;352;48.626;9.238;2023-01-16T05:58:08;5.93;;;5.38;;
735;SDS011;352;48.626;9.238;2023-01-16T06:00:35;4.93;;;4.30;;
735;SDS011;352;48.626;9.238;2023-01-16T06:03:02;3.10;;;2.90;;
735;SDS011;352;48.626;9.238;2023-01-16T06:05:28;4.30;;;3.90;;
735;SDS011;352;48.626;9.238;2023-01-16T06:07:56;3.92;;;3.63;;
735;SDS011;352;48.626;9.238;2023-01-16T06:10:24;4.50;;;3.20;;
735;SDS011;352;48.626;9.238;2023-01-16T06:12:51;4.05;;;3.75;;
735;SDS011;352;48.626;9.238;2023-01-16T06:15:18;3.40;;;3.20;;
735;SDS011;352;48.626;9.238;2023-01-16T06:17:45;2.92;;;2.72;;
735;SDS011;352;48.626;9.238;2023-01-16T06:20:12;3.53;;;3.20;;
735;SDS011;352;48.626;9.238;2023-01-16T06:22:39;4.30;;;3.63;;
735;SDS011;352;48.626;9.238;2023-01-16T06:25:07;5.70;;;3.95;;
735;SDS011;352;48.626;9.238;2023-01-16T06:27:34;3.00;;;2.80;;
735;SDS011;352;48.626;9.238;2023-01-16T06:30:01;3.30;;;3.10;;
735;SDS011;352;48.626;9.238;2023-01-16T06:32:28;4.75;;;4.03;;
735;SDS011;352;48.626;9.238;2023-01-16T06:34:55;4.80;;;4.28;;
735;SDS011;352;48.626;9.238;2023-01-16T06:37:22;4.13;;;3.35;;
735;SDS011;352;48.626;9.238;2023-01-16T06:39:48;3.88;;;3.47;;
735;SDS011;352;48.626;9.238;2023-01-16T06:42:16;3.30;;;3.00;;
735;SDS011;352;48.626;9.238;2023-01-16T06:44:45;4.25;;;3.85;;
735;SDS011;352;48.626;9.238;2023-01-16T06:47:11;3.00;;;2.80;;
735;SDS011;352;48.626;9.238;2023-01-16T06:49:40;3.13;;;2.80;;
735;SDS011;352;48.626;9.238;2023-01-16T06:52:06;3.10;;;2.90;;
735;SDS011;352;48.626;9.238;2023-01-16T06:54:33;3.53;;;3.08;;
735;SDS011;352;48.626;9.238;2023-01-16T06:57:00;2.53;;;2.42;;
735;SDS011;352;48.626;9.238;2023-01-16T06:59:28;2.65;;;2.20;;
735;SDS011;352;48.626;9.238;2023-01-16T07:01:54;2.85;;;2.65;;
735;SDS011;352;48.626;9.238;2023-01-16T07:04:21;5.47;;;2.42;;
735;SDS011;352;48.626;9.238;2023-01-16T07:06:48;2.40;;;2.20;;
735;SDS011;352;48.626;9.238;2023-01-16T07:09:15;2.35;;;2.20;;
735;SDS011;352;48.626;9.238;2023-01-16T07:11:42;2.45;;;2.30;;
735;SDS011;352;48.626;9.238;2023-01-16T07:14:09;3.20;;;2.90;;
735;SDS011;352;48.626;9.238;2023-01-16T07:16:54;3.05;;;2.95;;
735;SDS011;352;48.626;9.238;2023-01-16T07:19:38;2.90;;;2.70;;
735;SDS011;352;48.626;9.238;2023-01-16T07:22:22;3.17;;;2.97;;
735;SDS011;352;48.626;9.238;2023-01-16T07:25:04;4.00;;;3.65;;
735;SDS011;352;48.626;9.238;2023-01-16T07:27:34;3.30;;;3.10;;
735;SDS011;352;48.626;9.238;2023-01-16T07:30:01;2.42;;;2.33;;
735;SDS011;352;48.626;9.238;2023-01-16T07:32:29;2.60;;;2.47;;
735;SDS011;352;48.626;9.238;2023-01-16T07:34:56;3.63;;;3.42;;
735;SDS011;352;48.626;9.238;2023-01-16T07:37:23;3.90;;;2.92;;
735;SDS011;352;48.626;9.238;2023-01-16T07:39:50;3.20;;;2.90;;
735;SDS011;352;48.626;9.238;2023-01-16T07:42:16;7.18;;;2.88;;
735;SDS011;352;48.626;9.238;2023-01-16T07:44:43;2.72;;;2.53;;
735;SDS011;352;48.626;9.238;2023-01-16T07:47:10;2.40;;;2.30;;
735;SDS011;352;48.626;9.238;2023-01-16T07:49:39;2.83;;;2.63;;
735;SDS011;352;48.626;9.238;2023-01-16T07:52:05;2.60;;;2.50;;
735;SDS011;352;48.626;9.238;2023-01-16T07:54:32;2.53;;;2.35;;
735;SDS011;352;48.626;9.238;2023-01-16T07:57:01;2.88;;;2.67;;
735;SDS011;352;48.626;9.238;2023-01-16T07:59:27;2.67;;;2.33;;
735;SDS011;352;48.626;9.238;2023-01-16T08:01:54;2.30;;;2.20;;
735;SDS011;352;48.626;9.238;2023-01-16T08:04:21;4.80;;;2.40;;
735;SDS011;352;48.626;9.238;2023-01-16T08:06:49;2.58;;;2.47;;
735;SDS011;352;48.626;9.238;2023-01-16T08:09:16;2.30;;;2.10;;
735;SDS011;352;48.626;9.238;2023-01-16T08:11:42;3.67;;;2.45;;
735;SDS011;352;48.626;9.238;2023-01-16T08:14:11;2.20;;;2.10;;
735;SDS011;352;48.626;9.238;2023-01-16T08:16:39;1.83;;;1.67;;
735;SDS011;352;48.626;9.238;2023-01-16T08:19:06;1.98;;;1.88;;
735;SDS011;352;48.626;9.238;2023-01-16T08:21:33;2.30;;;2.10;;
735;SDS011;352;48.626;9.238;2023-01-16T08:24:01;2.30;;;2.20;;
735;SDS011;352;48.626;9.238;2023-01-16T08:26:28;2.30;;;2.20;;
735;SDS011;352;48.626;9.238;2023-01-16T08:28:55;1.95;;;1.88;;
735;SDS011;352;48.626;9.238;2023-01-16T08:31:22;2.10;;;2.00;;
735;SDS011;352;48.626;9.238;2023-01-16T08:33:49;3.00;;;2.80;;
735;SDS011;352;48.626;9.238;2023-01-16T08:36:16;2.90;;;2.70;;
735;SDS011;352;48.626;9.238;2023-01-16T08:38:45;3.20;;;3.00;;
735;SDS011;352;48.626;9.238;2023-01-16T08:41:14;3.08;;;2.83;;
735;SDS011;352;48.626;9.238;2023-01-16T08:44:00;11.35;;;6.53;;
735;SDS011;352;48.626;9.238;2023-01-16T08:46:47;10.68;;;4.95;;
735;SDS011;352;48.626;9.238;2023-01-16T08:49:37;5.15;;;3.30;;
735;SDS011;352;48.626;9.238;2023-01-16T08:52:21;3.75;;;3.45;;
735;SDS011;352;48.626;9.238;2023-01-16T08:54:48;3.75;;;3.47;;
735;SDS011;352;48.626;9.238;2023-01-16T08:57:16;3.60;;;2.90;;
735;SDS011;352;48.626;9.238;2023-01-16T08:59:42;3.20;;;2.88;;
735;SDS011;352;48.626;9.238;2023-01-16T09:02:09;2.55;;;2.42;;
735;SDS011;352;48.626;9.238;2023-01-16T09:04:39;2.60;;;2.40;;
735;SDS011;352;48.626;9.238;2023-01-16T09:07:06;2.70;;;2.60;;
735;SDS011;352;48.626;9.238;2023-01-16T09:09:32;2.67;;;2.58;;
735;SDS011;352;48.626;9.238;2023-01-16T09:11:59;2.05;;;1.95;;
735;SDS011;352;48.626;9.238;2023-01-16T09:14:45;2.05;;;1.95;;
735;SDS011;352;48.626;9.238;2023-01-16T09:17:11;2.20;;;2.10;;
735;SDS011;352;48.626;9.238;2023-01-16T09:19:38;2.08;;;2.00;;
735;SDS011;352;48.626;9.238;2023-01-16T09:22:05;4.15;;;2.55;;
735;SDS011;352;48.626;9.238;2023-01-16T09:24:32;2.42;;;2.33;;
735;SDS011;352;48.626;9.238;2023-01-16T09:27:00;2.50;;;2.40;;
735;SDS011;352;48.626;9.238;2023-01-16T09:29:28;2.53;;;2.35;;
735;SDS011;352;48.626;9.238;2023-01-16T09:31:56;2.03;;;1.92;;
735;SDS011;352;48.626;9.238;2023-01-16T09:34:23;2.50;;;2.30;;
735;SDS011;352;48.626;9.238;2023-01-16T09:36:49;3.83;;;3.53;;
735;SDS011;352;48.626;9.238;2023-01-16T09:39:16;7.93;;;5.82;;
735;SDS011;352;48.626;9.238;2023-01-16T09:41:47;2.55;;;2.45;;
735;SDS011;352;48.626;9.238;2023-01-16T09:44:40;2.40;;;2.30;;
735;SDS011;352;48.626;9.238;2023-01-16T09:47:11;2.25;;;2.15;;
735;SDS011;352;48.626;9.238;2023-01-16T09:49:41;2.50;;;2.40;;
735;SDS011;352;48.626;9.238;2023-01-16T09:52:12;2.10;;;2.00;;
735;SDS011;352;48.626;9.238;2023-01-16T09:55:01;1.92;;;1.70;;
735;SDS011;352;48.626;9.238;2023-01-16T09:57:54;1.80;;;1.80;;
735;SDS011;352;48.626;9.238;2023-01-16T10:00:39;1.98;;;1.88;;
735;SDS011;352;48.626;9.238;2023-01-16T10:03:07;2.30;;;2.20;;
735;SDS011;352;48.626;9.238;2023-01-16T10:05:36;1.98;;;1.98;;
735;SDS011;352;48.626;9.238;2023-01-16T10:08:09;2.30;;;2.20;;
735;SDS011;352;48.626;9.238;2023-01-16T10:10:45;2.40;;;2.30;;
735;SDS011;352;48.626;9.238;2023-01-16T10:13:22;3.70;;;3.40;;
735;SDS011;352;48.626;9.238;2023-01-16T10:16:02;3.15;;;2.95;;
735;SDS011;352;48.626;9.238;2023-01-16T10:18:40;2.63;;;2.53;;
735;SDS011;352;48.626;9.238;2023-01-16T10:21:27;2.40;;;2.20;;
735;SDS011;352;48.626;9.238;2023-01-16T10:24:09;2.95;;;2.53;;
735;SDS011;352;48.626;9.238;2023-01-16T10:26:45;3.05;;;2.85;;
735;SDS011;352;48.626;9.238;2023-01-16T10:29:22;3.05;;;2.95;;
735;SDS011;352;48.626;9.238;2023-01-16T10:31:56;2.70;;;2.60;;
735;SDS011;352;48.626;9.238;2023-01-16T10:34:30;2.70;;;2.60;;
735;SDS011;352;48.626;9.238;2023-01-16T10:36:59;3.10;;;3.00;;
735;SDS011;352;48.626;9.238;2023-01-16T10:39:30;2.95;;;2.75;;
735;SDS011;352;48.626;9.238;2023-01-16T10:41:59;2.70;;;2.60;;
735;SDS011;352;48.626;9.238;2023-01-16T10:44:54;3.10;;;3.00;;
735;SDS011;352;48.626;9.238;2023-01-16T10:47:42;2.83;;;2.72;;
735;SDS011;352;48.626;9.238;2023-01-16T10:50:28;3.10;;;3.00;;
735;SDS011;352;48.626;9.238;2023-01-16T10:52:55;3.50;;;3.30;;
735;SDS011;352;48.626;9.238;2023-01-16T10:55:22;3.20;;;3.10;;
735;SDS011;352;48.626;9.238;2023-01-16T10:57:50;3.00;;;2.90;;
735;SDS011;352;48.626;9.238;2023-01-16T11:00:19;2.53;;;2.42;;
735;SDS011;352;48.626;9.238;2023-01-16T11:02:50;3.45;;;3.25;;
735;SDS011;352;48.626;9.238;2023-01-16T11:05:24;2.92;;;2.72;;
735;SDS011;352;48.626;9.238;2023-01-16T11:07:55;4.22;;;2.75;;
735;SDS011;352;48.626;9.238;2023-01-16T11:10:27;2.90;;;2.80;;
735;SDS011;352;48.626;9.238;2023-01-16T11:12:53;2.95;;;2.85;;
735;SDS011;352;48.626;9.238;2023-01-16T11:15:38;2.65;;;2.50;;
735;SDS011;352;48.626;9.238;2023-01-16T11:18:26;3.17;;;3.00;;
735;SDS011;352;48.626;9.238;2023-01-16T11:20:54;3.00;;;2.90;;
735;SDS011;352;48.626;9.238;2023-01-16T11:23:24;2.78;;;2.65;;
735;SDS011;352;48.626;9.238;2023-01-16T11:25:53;2.58;;;2.47;;
735;SDS011;352;48.626;9.238;2023-01-16T11:28:23;3.50;;;3.30;;
735;SDS011;352;48.626;9.238;2023-01-16T11:30:53;3.80;;;3.70;;
735;SDS011;352;48.626;9.238;2023-01-16T11:33:22;3.50;;;3.40;;
735;SDS011;352;48.626;9.238;2023-01-16T11:35:53;4.10;;;3.80;;
735;SDS011;352;48.626;9.238;2023-01-16T11:38:21;3.30;;;3.17;;
735;SDS011;352;48.626;9.238;2023-01-16T11:40:51;3.05;;;2.95;;
735;SDS011;352;48.626;9.238;2023-01-16T11:43:22;2.25;;;2.15;;
735;SDS011;352;48.626;9.238;2023-01-16T11:46:19;2.25;;;2.15;;
735;SDS011;352;48.626;9.238;2023-01-16T11:48:55;2.20;;;2.10;;
735;SDS011;352;48.626;9.238;2023-01-16T11:51:26;1.83;;;1.70;;
735;SDS011;352;48.626;9.238;2023-01-16T11:53:56;1.65;;;1.65;;
735;SDS011;352;48.626;9.238;2023-01-16T11:56:30;1.75;;;1.65;;
735;SDS011;352;48.626;9.238;2023-01-16T11:59:10;2.13;;;1.67;;
735;SDS011;352;48.626;9.238;2023-01-16T12:01:53;1.95;;;1.50;;
735;SDS011;352;48.626;9.238;2023-01-16T12:04:45;2.22;;;1.98;;
735;SDS011;352;48.626;9.238;2023-01-16T12:07:31;2.15;;;2.05;;
735;SDS011;352;48.626;9.238;2023-01-16T12:10:08;2.22;;;2.03;;
735;SDS011;352;48.626;9.238;2023-01-16T12:12:45;2.72;;;2.17;;
735;SDS011;352;48.626;9.238;2023-01-16T12:15:35;2.40;;;2.20;;
735;SDS011;352;48.626;9.238;2023-01-16T12:18:15;2.70;;;2.50;;
735;SDS011;352;48.626;9.238;2023-01-16T12:20:50;2.53;;;2.42;;
735;SDS011;352;48.626;9.238;2023-01-16T12:23:24;2.22;;;2.13;;
735;SDS011;352;48.626;9.238;2023-01-16T12:26:06;2.00;;;1.90;;
735;SDS011;352;48.626;9.238;2023-01-16T12:28:44;2.30;;;2.20;;
735;SDS011;352;48.626;9.238;2023-01-16T12:31:25;3.20;;;2.30;;
735;SDS011;352;48.626;9.238;2023-01-16T12:34:18;3.15;;;1.95;;
735;SDS011;352;48.626;9.238;2023-01-16T12:37:04;1.50;;;1.50;;
735;SDS011;352;48.626;9.238;2023-01-16T12:39:40;1.90;;;1.80;;
735;SDS011;352;48.626;9.238;2023-01-16T12:42:17;2.28;;;2.05;;
735;SDS011;352;48.626;9.238;2023-01-16T12:45:16;2.22;;;2.10;;
735;SDS011;352;48.626;9.238;2023-01-16T12:47:54;1.88;;;1.77;;
735;SDS011;352;48.626;9.238;2023-01-16T12:50:36;2.33;;;2.22;;
735;SDS011;352;48.626;9.238;2023-01-16T12:53:22;2.20;;;2.00;;
735;SDS011;352;48.626;9.238;2023-01-16T12:56:00;1.75;;;1.75;;
735;SDS011;352;48.626;9.238;2023-01-16T12:58:45;1.90;;;1.80;;
735;SDS011;352;48.626;9.238;2023-01-16T13:01:16;2.00;;;1.90;;
735;SDS011;352;48.626;9.238;2023-01-16T13:03:47;2.00;;;1.90;;
735;SDS011;352;48.626;9.238;2023-01-16T13:06:22;1.90;;;1.80;;
735;SDS011;352;48.626;9.238;2023-01-16T13:09:00;1.80;;;1.80;;
735;SDS011;352;48.626;9.238;2023-01-16T13:11:35;2.00;;;1.90;;
735;SDS011;352;48.626;9.238;2023-01-16T13:14:35;2.10;;;2.00;;
735;SDS011;352;48.626;9.238;2023-01-16T13:17:04;1.90;;;1.80;;
735;SDS011;352;48.626;9.238;2023-01-16T13:19:36;1.95;;;1.85;;
735;SDS011;352;48.626;9.238;2023-01-16T13:22:06;1.90;;;1.80;;
735;SDS011;352;48.626;9.238;2023-01-16T13:24:45;1.80;;;1.80;;
735;SDS011;352;48.626;9.238;2023-01-16T13:27:18;1.60;;;1.60;;
735;SDS011;352;48.626;9.238;2023-01-16T13:29:50;1.65;;;1.63;;
735;SDS011;352;48.626;9.238;2023-01-16T13:32:22;1.75;;;1.75;;
735;SDS011;352;48.626;9.238;2023-01-16T13:34:53;1.58;;;1.58;;
735;SDS011;352;48.626;9.238;2023-01-16T13:37:32;1.98;;;1.88;;
735;SDS011;352;48.626;9.238;2023-01-16T13:40:17;1.70;;;1.70;;
735;SDS011;352;48.626;9.238;2023-01-16T13:43:00;1.75;;;1.75;;
735;SDS011;352;48.626;9.238;2023-01-16T13:45:45;2.10;;;2.00;;
735;SDS011;352;48.626;9.238;2023-01-16T13:48:14;1.92;;;1.90;;
735;SDS011;352;48.626;9.238;2023-01-16T13:50:44;2.50;;;2.30;;
735;SDS011;352;48.626;9.238;2023-01-16T13:53:16;2.20;;;2.10;;
735;SDS011;352;48.626;9.238;2023-01-16T13:55:45;1.67;;;1.67;;
735;SDS011;352;48.626;9.238;2023-01-16T13:58:14;2.20;;;2.10;;
735;SDS011;352;48.626;9.238;2023-01-16T14:00:45;1.60;;;1.60;;
735;SDS011;352;48.626;9.238;2023-01-16T14:03:22;1.90;;;1.80;;
735;SDS011;352;48.626;9.238;2023-01-16T14:05:51;2.00;;;1.90;;
735;SDS011;352;48.626;9.238;2023-01-16T14:11:34;1.90;;;1.90;;
735;SDS011;352;48.626;9.238;2023-01-16T14:14:16;2.70;;;2.60;;
735;SDS011;352;48.626;9.238;2023-01-16T14:17:19;3.15;;;3.05;;
735;SDS011;352;48.626;9.238;2023-01-16T14:19:52;3.30;;;2.95;;
735;SDS011;352;48.626;9.238;2023-01-16T14:22:21;2.83;;;2.65;;
735;SDS011;352;48.626;9.238;2023-01-16T14:25:15;3.20;;;2.70;;
735;SDS011;352;48.626;9.238;2023-01-16T14:27:47;2.90;;;2.80;;
735;SDS011;352;48.626;9.238;2023-01-16T14:30:18;2.50;;;2.40;;
735;SDS011;352;48.626;9.238;2023-01-16T14:32:53;2.50;;;2.40;;
735;SDS011;352;48.626;9.238;2023-01-16T14:35:23;3.55;;;2.75;;
735;SDS011;352;48.626;9.238;2023-01-16T14:37:56;5.03;;;2.50;;
735;SDS011;352;48.626;9.238;2023-01-16T14:40:25;3.35;;;2.20;;
735;SDS011;352;48.626;9.238;2023-01-16T14:43:07;2.33;;;2.20;;
735;SDS011;352;48.626;9.238;2023-01-16T14:49:02;2.72;;;2.53;;
735;SDS011;352;48.626;9.238;2023-01-16T14:52:34;2.30;;;2.20;;
735;SDS011;352;48.626;9.238;2023-01-16T14:55:20;2.83;;;2.60;;
735;SDS011;352;48.626;9.238;2023-01-16T14:57:47;2.58;;;2.47;;
735;SDS011;352;48.626;9.238;2023-01-16T15:00:16;2.10;;;2.00;;
735;SDS011;352;48.626;9.238;2023-01-16T15:02:46;2.45;;;2.35;;
735;SDS011;352;48.626;9.238;2023-01-16T15:05:20;2.10;;;2.00;;
735;SDS011;352;48.626;9.238;2023-01-16T15:08:10;1.95;;;1.85;;
735;SDS011;352;48.626;9.238;2023-01-16T15:10:40;2.20;;;2.10;;
735;SDS011;352;48.626;9.238;2023-01-16T15:13:12;4.97;;;2.60;;
735;SDS011;352;48.626;9.238;2023-01-16T15:15:40;2.28;;;2.17;;
735;SDS011;352;48.626;9.238;2023-01-16T15:18:09;2.38;;;2.28;;
735;SDS011;352;48.626;9.238;2023-01-16T15:20:59;2.28;;;2.13;;
735;SDS011;352;48.626;9.238;2023-01-16T15:23:43;2.83;;;2.63;;
735;SDS011;352;48.626;9.238;2023-01-16T15:26:12;3.08;;;2.70;;
735;SDS011;352;48.626;9.238;2023-01-16T15:28:50;2.65;;;2.55;;
735;SDS011;352;48.626;9.238;2023-01-16T15:31:37;2.88;;;2.50;;
735;SDS011;352;48.626;9.238;2023-01-16T15:34:18;2.50;;;2.40;;
735;SDS011;352;48.626;9.238;2023-01-16T15:36:49;2.33;;;2.22;;
735;SDS011;352;48.626;9.238;2023-01-16T15:39:18;2.15;;;2.05;;
735;SDS011;352;48.626;9.238;2023-01-16T15:41:50;3.00;;;2.80;;
735;SDS011;352;48.626;9.238;2023-01-16T15:44:37;2.50;;;2.40;;
735;SDS011;352;48.626;9.238;2023-01-16T15:50:23;2.72;;;2.53;;
735;SDS011;352;48.626;9.238;2023-01-16T15:52:58;2.80;;;2.55;;
735;SDS011;352;48.626;9.238;2023-01-16T15:55:26;2.40;;;2.30;;
735;SDS011;352;48.626;9.238;2023-01-16T15:57:56;2.10;;;2.00;;
735;SDS011;352;48.626;9.238;2023-01-16T16:00:28;2.28;;;2.05;;
735;SDS011;352;48.626;9.238;2023-01-16T16:02:58;2.42;;;2.33;;
735;SDS011;352;48.626;9.238;2023-01-16T16:05:27;1.75;;;1.65;;
735;SDS011;352;48.626;9.238;2023-01-16T16:07:54;1.65;;;1.55;;
735;SDS011;352;48.626;9.238;2023-01-16T16:10:24;1.70;;;1.60;;
735;SDS011;352;48.626;9.238;2023-01-16T16:13:16;3.00;;;1.60;;
735;SDS011;352;48.626;9.238;2023-01-16T16:15:53;1.80;;;1.70;;
735;SDS011;352;48.626;9.238;2023-01-16T16:18:50;1.42;;;1.42;;
735;SDS011;352;48.626;9.238;2023-01-16T16:21:18;1.50;;;1.40;;
735;SDS011;352;48.626;9.238;2023-01-16T16:23:53;1.83;;;1.70;;
735;SDS011;352;48.626;9.238;2023-01-16T16:26:24;1.98;;;1.88;;
735;SDS011;352;48.626;9.238;2023-01-16T16:28:52;1.75;;;1.65;;
735;SDS011;352;48.626;9.238;2023-01-16T16:31:20;1.67;;;1.58;;
735;SDS011;352;48.626;9.238;2023-01-16T16:33:53;1.80;;;1.70;;